This is the latest recevied weather packets stored in our database for station/object KC5AV. If no packets are shown the sender has not sent any weather packets the latest 10 day(s).
| Time | Temp. | Humidity | Pressure | Rain* | Wind** | Luminosity | Snow |
|---|---|---|---|---|---|---|---|
| 1777738318 | 21.67° C | 55% | 1022.3 hPa | 0 mm | - | 687 W/m² | - |
| 1777738016 | 20.56° C | 59% | 1022.5 hPa | 0 mm | - | 699 W/m² | - |
| 1777737715 | 21.67° C | 53% | 1022.4 hPa | 0 mm | - | 691 W/m² | - |
| 1777737413 | 21.67° C | 56% | 1022.3 hPa | 0 mm | - | 678 W/m² | - |
| 1777737110 | 20.56° C | 54% | 1022.5 hPa | 0 mm | - | 664 W/m² | - |
| 1777736806 | 20.56° C | 58% | 1022.3 hPa | 0 mm | - | 664 W/m² | - |
| 1777736177 | 21.11° C | 51% | 1022.3 hPa | 0 mm | - | 644 W/m² | - |
| 1777735875 | 20.56° C | 58% | 1022.1 hPa | 0 mm | - | 630 W/m² | - |
| 1777735572 | 20.56° C | 59% | 1022 hPa | 0 mm | - | 619 W/m² | - |
| 1777735269 | 21.11° C | 61% | 1022 hPa | 0 mm | - | 602 W/m² | - |
| 1777734966 | 20° C | 64% | 1022 hPa | 0 mm | - | 587 W/m² | - |
| 1777734663 | 20° C | 63% | 1021.9 hPa | 0 mm | - | 577 W/m² | - |
| 1777734361 | 20.56° C | 59% | 1021.9 hPa | 0 mm | - | 559 W/m² | - |
| 1777734056 | 20° C | 64% | 1022 hPa | 0 mm | - | 552 W/m² | - |
| 1777733753 | 20° C | 62% | 1022 hPa | 0 mm | - | 541 W/m² | - |
| 1777733450 | 18.89° C | 70% | 1022 hPa | 0 mm | - | 532 W/m² | - |
| 1777733146 | 20° C | 63% | 1022 hPa | 0 mm | - | 522 W/m² | - |
| 1777732843 | 20° C | 63% | 1021.9 hPa | 0 mm | - | 513 W/m² | - |
| 1777732539 | 19.44° C | 66% | 1022.1 hPa | 0 mm | - | 505 W/m² | - |
| 1777732238 | 19.44° C | 68% | 1021.8 hPa | 0 mm | - | 497 W/m² | - |
| 1777731934 | 18.89° C | 68% | 1021.6 hPa | 0 mm | - | 493 W/m² | - |
| 1777731631 | 18.33° C | 69% | 1021.5 hPa | 0 mm | - | 481 W/m² | - |
| 1777731329 | 18.33° C | 71% | 1021.5 hPa | 0 mm | - | 476 W/m² | - |
| 1777731026 | 18.33° C | 71% | 1021.2 hPa | 0 mm | - | 440 W/m² | - |
| 1777730725 | 17.78° C | 76% | 1021.6 hPa | 0 mm | - | 413 W/m² | - |
* Rain latest hour (hover to see other rain measurements)
** Current wind speed in m/s (hover to see current wind gust speed)